CYGW

Kuujjuarapik Airport

Code ICAO CYGW
Code IATA YGW
Nom Kuujjuarapik Airport
Emplacement Kuujjuarapik, Quebec, CA
Élévation 40 pieds / 12.2 mètres
Latitude 55.28194444
Longitude -77.76527778
METAR CYGW 240000Z AUTO 11009KT 9SM CLR 09/01 A3024 RMK SLP244
Informations extras Afficher cartes et CFS
Afficher NOTAMS
Piste Longueur Largeur Surface Élévation
03 5082 ft 150 ft GRAVEL 39 ft
21 5082 ft 150 ft GRAVEL 33 ft

Routes obligatoires

Kuujjuarapik Airport

Direction Destination Niveau Remarque Type Route
DEP TO CYUL H RNAV OBRET